sensor_id;sensor_type;location;lat;lon;timestamp;P1;durP1;ratioP1;P2;durP2;ratioP2
315;SDS011;14128;48.686;9.738;2022-07-22T00:01:50;8.90;;;8.43;;
315;SDS011;14128;48.686;9.738;2022-07-22T00:04:17;8.33;;;7.63;;
315;SDS011;14128;48.686;9.738;2022-07-22T00:06:44;11.07;;;8.20;;
315;SDS011;14128;48.686;9.738;2022-07-22T00:09:13;13.27;;;8.17;;
315;SDS011;14128;48.686;9.738;2022-07-22T00:11:40;9.43;;;8.93;;
315;SDS011;14128;48.686;9.738;2022-07-22T00:14:07;8.37;;;7.93;;
315;SDS011;14128;48.686;9.738;2022-07-22T00:16:34;9.27;;;8.77;;
315;SDS011;14128;48.686;9.738;2022-07-22T00:19:01;9.40;;;8.47;;
315;SDS011;14128;48.686;9.738;2022-07-22T00:21:28;10.43;;;9.10;;
315;SDS011;14128;48.686;9.738;2022-07-22T00:23:56;8.37;;;7.93;;
315;SDS011;14128;48.686;9.738;2022-07-22T00:26:24;9.37;;;8.80;;
315;SDS011;14128;48.686;9.738;2022-07-22T00:28:51;9.60;;;8.27;;
315;SDS011;14128;48.686;9.738;2022-07-22T00:31:18;8.30;;;7.90;;
315;SDS011;14128;48.686;9.738;2022-07-22T00:33:45;10.37;;;9.83;;
315;SDS011;14128;48.686;9.738;2022-07-22T00:36:13;10.80;;;9.17;;
315;SDS011;14128;48.686;9.738;2022-07-22T00:38:40;9.90;;;9.10;;
315;SDS011;14128;48.686;9.738;2022-07-22T00:41:07;9.07;;;8.57;;
315;SDS011;14128;48.686;9.738;2022-07-22T00:43:55;8.80;;;8.30;;
315;SDS011;14128;48.686;9.738;2022-07-22T00:46:24;10.13;;;9.60;;
315;SDS011;14128;48.686;9.738;2022-07-22T00:48:52;12.13;;;10.30;;
315;SDS011;14128;48.686;9.738;2022-07-22T00:51:20;9.03;;;8.53;;
315;SDS011;14128;48.686;9.738;2022-07-22T00:53:47;9.23;;;8.73;;
315;SDS011;14128;48.686;9.738;2022-07-22T00:56:15;9.80;;;9.30;;
315;SDS011;14128;48.686;9.738;2022-07-22T00:58:43;11.73;;;9.27;;
315;SDS011;14128;48.686;9.738;2022-07-22T01:01:12;11.47;;;10.87;;
315;SDS011;14128;48.686;9.738;2022-07-22T01:03:39;10.83;;;10.23;;
315;SDS011;14128;48.686;9.738;2022-07-22T01:06:06;9.10;;;8.60;;
315;SDS011;14128;48.686;9.738;2022-07-22T01:08:34;9.60;;;9.07;;
315;SDS011;14128;48.686;9.738;2022-07-22T01:11:08;9.23;;;8.73;;
315;SDS011;14128;48.686;9.738;2022-07-22T01:13:35;9.80;;;9.30;;
315;SDS011;14128;48.686;9.738;2022-07-22T01:16:02;10.27;;;9.10;;
315;SDS011;14128;48.686;9.738;2022-07-22T01:18:31;9.23;;;8.73;;
315;SDS011;14128;48.686;9.738;2022-07-22T01:21:00;10.07;;;9.57;;
315;SDS011;14128;48.686;9.738;2022-07-22T01:23:27;11.50;;;10.03;;
315;SDS011;14128;48.686;9.738;2022-07-22T01:25:54;9.10;;;8.60;;
315;SDS011;14128;48.686;9.738;2022-07-22T01:28:22;9.47;;;8.97;;
315;SDS011;14128;48.686;9.738;2022-07-22T01:30:49;10.10;;;9.60;;
315;SDS011;14128;48.686;9.738;2022-07-22T01:33:17;10.10;;;9.60;;
315;SDS011;14128;48.686;9.738;2022-07-22T01:35:44;10.77;;;8.87;;
315;SDS011;14128;48.686;9.738;2022-07-22T01:38:12;9.80;;;9.33;;
315;SDS011;14128;48.686;9.738;2022-07-22T01:40:40;11.00;;;9.93;;
315;SDS011;14128;48.686;9.738;2022-07-22T01:43:08;10.80;;;10.20;;
315;SDS011;14128;48.686;9.738;2022-07-22T01:45:35;11.57;;;11.03;;
315;SDS011;14128;48.686;9.738;2022-07-22T01:48:02;10.80;;;10.20;;
315;SDS011;14128;48.686;9.738;2022-07-22T01:50:30;10.80;;;10.20;;
315;SDS011;14128;48.686;9.738;2022-07-22T01:52:57;12.97;;;10.60;;
315;SDS011;14128;48.686;9.738;2022-07-22T01:55:25;9.93;;;9.43;;
315;SDS011;14128;48.686;9.738;2022-07-22T01:57:52;10.20;;;9.70;;
315;SDS011;14128;48.686;9.738;2022-07-22T02:00:20;11.40;;;9.87;;
315;SDS011;14128;48.686;9.738;2022-07-22T02:02:47;11.20;;;10.33;;
315;SDS011;14128;48.686;9.738;2022-07-22T02:05:14;11.70;;;11.10;;
315;SDS011;14128;48.686;9.738;2022-07-22T02:07:41;10.17;;;9.67;;
315;SDS011;14128;48.686;9.738;2022-07-22T02:10:08;12.10;;;9.90;;
315;SDS011;14128;48.686;9.738;2022-07-22T02:12:37;12.07;;;10.43;;
315;SDS011;14128;48.686;9.738;2022-07-22T02:15:04;10.17;;;9.63;;
315;SDS011;14128;48.686;9.738;2022-07-22T02:17:33;10.70;;;9.73;;
315;SDS011;14128;48.686;9.738;2022-07-22T02:20:00;11.67;;;11.07;;
315;SDS011;14128;48.686;9.738;2022-07-22T02:22:27;9.90;;;9.27;;
315;SDS011;14128;48.686;9.738;2022-07-22T02:24:54;13.30;;;10.50;;
315;SDS011;14128;48.686;9.738;2022-07-22T02:27:22;11.83;;;9.50;;
315;SDS011;14128;48.686;9.738;2022-07-22T02:29:50;10.30;;;9.80;;
315;SDS011;14128;48.686;9.738;2022-07-22T02:32:17;11.17;;;10.57;;
315;SDS011;14128;48.686;9.738;2022-07-22T02:34:44;10.20;;;9.70;;
315;SDS011;14128;48.686;9.738;2022-07-22T02:37:12;11.10;;;9.97;;
315;SDS011;14128;48.686;9.738;2022-07-22T02:39:39;10.87;;;9.13;;
315;SDS011;14128;48.686;9.738;2022-07-22T02:42:06;9.87;;;9.37;;
315;SDS011;14128;48.686;9.738;2022-07-22T02:44:33;12.50;;;11.10;;
315;SDS011;14128;48.686;9.738;2022-07-22T02:47:02;10.90;;;10.30;;
315;SDS011;14128;48.686;9.738;2022-07-22T02:49:29;11.63;;;11.03;;
315;SDS011;14128;48.686;9.738;2022-07-22T02:51:56;13.00;;;11.90;;
315;SDS011;14128;48.686;9.738;2022-07-22T02:54:23;10.33;;;9.80;;
315;SDS011;14128;48.686;9.738;2022-07-22T02:56:50;11.87;;;10.30;;
315;SDS011;14128;48.686;9.738;2022-07-22T02:59:17;11.00;;;10.40;;
315;SDS011;14128;48.686;9.738;2022-07-22T03:01:44;11.37;;;10.77;;
315;SDS011;14128;48.686;9.738;2022-07-22T03:04:13;11.20;;;10.50;;
315;SDS011;14128;48.686;9.738;2022-07-22T03:06:40;18.30;;;11.90;;
315;SDS011;14128;48.686;9.738;2022-07-22T03:09:07;11.27;;;10.17;;
315;SDS011;14128;48.686;9.738;2022-07-22T03:11:34;11.53;;;10.93;;
315;SDS011;14128;48.686;9.738;2022-07-22T03:14:01;13.10;;;11.50;;
315;SDS011;14128;48.686;9.738;2022-07-22T03:16:28;15.93;;;11.30;;
315;SDS011;14128;48.686;9.738;2022-07-22T03:18:55;12.30;;;11.57;;
315;SDS011;14128;48.686;9.738;2022-07-22T03:21:24;12.57;;;10.83;;
315;SDS011;14128;48.686;9.738;2022-07-22T03:23:52;11.00;;;10.40;;
315;SDS011;14128;48.686;9.738;2022-07-22T03:26:19;11.93;;;11.33;;
315;SDS011;14128;48.686;9.738;2022-07-22T03:28:46;13.10;;;12.20;;
315;SDS011;14128;48.686;9.738;2022-07-22T03:31:13;12.83;;;11.37;;
315;SDS011;14128;48.686;9.738;2022-07-22T03:33:40;15.43;;;11.77;;
315;SDS011;14128;48.686;9.738;2022-07-22T03:36:08;12.27;;;11.67;;
315;SDS011;14128;48.686;9.738;2022-07-22T03:38:36;12.37;;;11.70;;
315;SDS011;14128;48.686;9.738;2022-07-22T03:41:04;13.43;;;12.73;;
315;SDS011;14128;48.686;9.738;2022-07-22T03:43:31;17.67;;;13.03;;
315;SDS011;14128;48.686;9.738;2022-07-22T03:45:58;11.90;;;11.30;;
315;SDS011;14128;48.686;9.738;2022-07-22T03:48:25;12.80;;;11.67;;
315;SDS011;14128;48.686;9.738;2022-07-22T03:50:52;12.97;;;11.73;;
315;SDS011;14128;48.686;9.738;2022-07-22T03:53:20;11.67;;;11.07;;
315;SDS011;14128;48.686;9.738;2022-07-22T03:55:48;11.53;;;10.90;;
315;SDS011;14128;48.686;9.738;2022-07-22T03:58:15;12.90;;;12.20;;
315;SDS011;14128;48.686;9.738;2022-07-22T04:00:43;11.53;;;10.93;;
315;SDS011;14128;48.686;9.738;2022-07-22T04:03:10;12.77;;;11.90;;
315;SDS011;14128;48.686;9.738;2022-07-22T04:05:37;11.63;;;10.90;;
315;SDS011;14128;48.686;9.738;2022-07-22T04:08:04;11.13;;;10.53;;
315;SDS011;14128;48.686;9.738;2022-07-22T04:10:32;11.60;;;11.00;;
315;SDS011;14128;48.686;9.738;2022-07-22T04:13:00;15.00;;;12.50;;
315;SDS011;14128;48.686;9.738;2022-07-22T04:15:27;12.00;;;11.40;;
315;SDS011;14128;48.686;9.738;2022-07-22T04:17:54;14.87;;;14.10;;
315;SDS011;14128;48.686;9.738;2022-07-22T04:20:22;11.97;;;11.37;;
315;SDS011;14128;48.686;9.738;2022-07-22T04:22:49;12.03;;;11.43;;
315;SDS011;14128;48.686;9.738;2022-07-22T04:25:16;13.93;;;13.03;;
315;SDS011;14128;48.686;9.738;2022-07-22T04:27:43;18.03;;;12.80;;
315;SDS011;14128;48.686;9.738;2022-07-22T04:30:12;13.00;;;12.30;;
315;SDS011;14128;48.686;9.738;2022-07-22T04:32:39;15.30;;;13.47;;
315;SDS011;14128;48.686;9.738;2022-07-22T04:35:06;16.20;;;14.53;;
315;SDS011;14128;48.686;9.738;2022-07-22T04:37:33;13.83;;;12.80;;
315;SDS011;14128;48.686;9.738;2022-07-22T04:40:00;14.23;;;13.53;;
315;SDS011;14128;48.686;9.738;2022-07-22T04:42:28;12.20;;;11.60;;
315;SDS011;14128;48.686;9.738;2022-07-22T04:44:55;14.27;;;12.23;;
315;SDS011;14128;48.686;9.738;2022-07-22T04:47:23;17.13;;;13.50;;
315;SDS011;14128;48.686;9.738;2022-07-22T04:49:50;14.07;;;13.37;;
315;SDS011;14128;48.686;9.738;2022-07-22T04:52:18;14.83;;;12.30;;
315;SDS011;14128;48.686;9.738;2022-07-22T04:54:45;15.53;;;11.60;;
315;SDS011;14128;48.686;9.738;2022-07-22T04:57:12;12.77;;;12.07;;
315;SDS011;14128;48.686;9.738;2022-07-22T04:59:39;12.40;;;11.80;;
315;SDS011;14128;48.686;9.738;2022-07-22T05:02:06;15.37;;;12.53;;
315;SDS011;14128;48.686;9.738;2022-07-22T05:04:34;13.13;;;12.10;;
315;SDS011;14128;48.686;9.738;2022-07-22T05:07:02;11.23;;;10.57;;
315;SDS011;14128;48.686;9.738;2022-07-22T05:09:29;12.70;;;10.70;;
315;SDS011;14128;48.686;9.738;2022-07-22T05:11:56;13.87;;;11.60;;
315;SDS011;14128;48.686;9.738;2022-07-22T05:14:23;10.63;;;9.93;;
315;SDS011;14128;48.686;9.738;2022-07-22T05:16:50;11.00;;;10.40;;
315;SDS011;14128;48.686;9.738;2022-07-22T05:19:17;10.10;;;9.60;;
315;SDS011;14128;48.686;9.738;2022-07-22T05:21:46;10.60;;;9.37;;
315;SDS011;14128;48.686;9.738;2022-07-22T05:24:13;11.33;;;10.73;;
315;SDS011;14128;48.686;9.738;2022-07-22T05:26:40;13.70;;;10.40;;
315;SDS011;14128;48.686;9.738;2022-07-22T05:29:07;10.30;;;8.63;;
315;SDS011;14128;48.686;9.738;2022-07-22T05:31:34;10.83;;;10.23;;
315;SDS011;14128;48.686;9.738;2022-07-22T05:34:01;10.53;;;9.97;;
315;SDS011;14128;48.686;9.738;2022-07-22T05:36:29;10.07;;;9.57;;
315;SDS011;14128;48.686;9.738;2022-07-22T05:38:57;10.43;;;9.90;;
315;SDS011;14128;48.686;9.738;2022-07-22T05:41:24;11.43;;;8.73;;
315;SDS011;14128;48.686;9.738;2022-07-22T05:43:51;9.80;;;9.30;;
315;SDS011;14128;48.686;9.738;2022-07-22T05:46:18;10.50;;;9.10;;
315;SDS011;14128;48.686;9.738;2022-07-22T05:48:45;9.90;;;9.40;;
315;SDS011;14128;48.686;9.738;2022-07-22T05:51:13;13.20;;;9.87;;
315;SDS011;14128;48.686;9.738;2022-07-22T05:53:40;9.37;;;8.50;;
315;SDS011;14128;48.686;9.738;2022-07-22T05:56:09;8.63;;;8.13;;
315;SDS011;14128;48.686;9.738;2022-07-22T05:58:37;9.60;;;9.10;;
315;SDS011;14128;48.686;9.738;2022-07-22T06:01:04;9.67;;;8.90;;
315;SDS011;14128;48.686;9.738;2022-07-22T06:03:31;11.87;;;9.00;;
315;SDS011;14128;48.686;9.738;2022-07-22T06:05:58;10.53;;;9.97;;
315;SDS011;14128;48.686;9.738;2022-07-22T06:08:27;12.90;;;9.10;;
315;SDS011;14128;48.686;9.738;2022-07-22T06:10:54;9.23;;;8.73;;
315;SDS011;14128;48.686;9.738;2022-07-22T06:13:23;8.83;;;8.27;;
315;SDS011;14128;48.686;9.738;2022-07-22T06:15:50;10.00;;;9.23;;
315;SDS011;14128;48.686;9.738;2022-07-22T06:18:17;10.00;;;8.70;;
315;SDS011;14128;48.686;9.738;2022-07-22T06:20:44;8.73;;;8.23;;
315;SDS011;14128;48.686;9.738;2022-07-22T06:23:11;8.67;;;8.17;;
315;SDS011;14128;48.686;9.738;2022-07-22T06:25:39;8.90;;;8.40;;
315;SDS011;14128;48.686;9.738;2022-07-22T06:28:06;9.47;;;7.90;;
315;SDS011;14128;48.686;9.738;2022-07-22T06:30:35;10.73;;;8.87;;
315;SDS011;14128;48.686;9.738;2022-07-22T06:33:02;9.93;;;8.23;;
315;SDS011;14128;48.686;9.738;2022-07-22T06:35:29;9.23;;;8.73;;
315;SDS011;14128;48.686;9.738;2022-07-22T06:37:56;8.90;;;8.40;;
315;SDS011;14128;48.686;9.738;2022-07-22T06:40:23;9.10;;;8.60;;
315;SDS011;14128;48.686;9.738;2022-07-22T06:42:50;10.73;;;8.30;;
315;SDS011;14128;48.686;9.738;2022-07-22T06:45:18;11.20;;;8.63;;
315;SDS011;14128;48.686;9.738;2022-07-22T06:47:46;8.27;;;7.87;;
315;SDS011;14128;48.686;9.738;2022-07-22T06:50:13;9.07;;;8.57;;
315;SDS011;14128;48.686;9.738;2022-07-22T06:52:41;10.57;;;10.00;;
315;SDS011;14128;48.686;9.738;2022-07-22T06:55:09;10.93;;;10.33;;
315;SDS011;14128;48.686;9.738;2022-07-22T06:57:36;10.33;;;9.20;;
315;SDS011;14128;48.686;9.738;2022-07-22T07:00:03;9.47;;;8.23;;
315;SDS011;14128;48.686;9.738;2022-07-22T07:02:32;9.53;;;9.03;;
315;SDS011;14128;48.686;9.738;2022-07-22T07:05:00;8.17;;;7.77;;
315;SDS011;14128;48.686;9.738;2022-07-22T07:07:28;8.87;;;7.40;;
315;SDS011;14128;48.686;9.738;2022-07-22T07:09:55;12.77;;;8.60;;
315;SDS011;14128;48.686;9.738;2022-07-22T07:12:22;9.87;;;8.63;;
315;SDS011;14128;48.686;9.738;2022-07-22T07:14:49;13.23;;;8.00;;
315;SDS011;14128;48.686;9.738;2022-07-22T07:17:16;9.30;;;8.80;;
315;SDS011;14128;48.686;9.738;2022-07-22T07:19:43;9.03;;;8.53;;
315;SDS011;14128;48.686;9.738;2022-07-22T07:22:12;10.17;;;9.67;;
315;SDS011;14128;48.686;9.738;2022-07-22T07:24:39;10.10;;;9.53;;
315;SDS011;14128;48.686;9.738;2022-07-22T07:27:06;9.30;;;8.33;;
315;SDS011;14128;48.686;9.738;2022-07-22T07:29:34;10.27;;;9.30;;
315;SDS011;14128;48.686;9.738;2022-07-22T07:32:01;8.90;;;8.40;;
315;SDS011;14128;48.686;9.738;2022-07-22T07:34:28;11.23;;;10.17;;
315;SDS011;14128;48.686;9.738;2022-07-22T07:36:55;10.00;;;9.50;;
315;SDS011;14128;48.686;9.738;2022-07-22T07:39:24;8.83;;;7.90;;
315;SDS011;14128;48.686;9.738;2022-07-22T07:41:51;11.03;;;10.43;;
315;SDS011;14128;48.686;9.738;2022-07-22T07:44:18;7.77;;;7.37;;
315;SDS011;14128;48.686;9.738;2022-07-22T07:46:46;9.30;;;8.80;;
315;SDS011;14128;48.686;9.738;2022-07-22T07:49:13;10.13;;;9.63;;
315;SDS011;14128;48.686;9.738;2022-07-22T07:51:40;9.27;;;8.50;;
315;SDS011;14128;48.686;9.738;2022-07-22T07:54:07;8.50;;;8.00;;
315;SDS011;14128;48.686;9.738;2022-07-22T07:56:36;9.43;;;8.93;;
315;SDS011;14128;48.686;9.738;2022-07-22T07:59:03;8.63;;;8.10;;
315;SDS011;14128;48.686;9.738;2022-07-22T08:01:30;8.73;;;7.73;;
315;SDS011;14128;48.686;9.738;2022-07-22T08:03:58;9.03;;;8.53;;
315;SDS011;14128;48.686;9.738;2022-07-22T08:06:25;9.00;;;8.50;;
315;SDS011;14128;48.686;9.738;2022-07-22T08:08:52;11.00;;;8.30;;
315;SDS011;14128;48.686;9.738;2022-07-22T08:11:19;8.53;;;8.03;;
315;SDS011;14128;48.686;9.738;2022-07-22T08:13:48;7.70;;;7.30;;
315;SDS011;14128;48.686;9.738;2022-07-22T08:16:15;8.07;;;7.67;;
315;SDS011;14128;48.686;9.738;2022-07-22T08:18:42;8.47;;;7.80;;
315;SDS011;14128;48.686;9.738;2022-07-22T08:21:09;9.93;;;8.20;;
315;SDS011;14128;48.686;9.738;2022-07-22T08:23:36;7.53;;;7.03;;
315;SDS011;14128;48.686;9.738;2022-07-22T08:26:03;9.50;;;9.00;;
315;SDS011;14128;48.686;9.738;2022-07-22T08:28:30;10.73;;;9.90;;
315;SDS011;14128;48.686;9.738;2022-07-22T08:30:59;8.30;;;7.90;;
315;SDS011;14128;48.686;9.738;2022-07-22T08:33:26;8.97;;;8.47;;
315;SDS011;14128;48.686;9.738;2022-07-22T08:35:53;8.23;;;7.83;;
315;SDS011;14128;48.686;9.738;2022-07-22T08:38:20;8.30;;;7.90;;
315;SDS011;14128;48.686;9.738;2022-07-22T08:40:48;8.93;;;8.40;;
315;SDS011;14128;48.686;9.738;2022-07-22T08:43:15;10.20;;;8.00;;
315;SDS011;14128;48.686;9.738;2022-07-22T08:45:43;7.17;;;6.77;;
315;SDS011;14128;48.686;9.738;2022-07-22T08:48:11;8.00;;;7.60;;
315;SDS011;14128;48.686;9.738;2022-07-22T08:50:38;9.63;;;8.27;;
315;SDS011;14128;48.686;9.738;2022-07-22T08:53:07;9.00;;;8.30;;
315;SDS011;14128;48.686;9.738;2022-07-22T08:55:39;7.47;;;7.00;;
315;SDS011;14128;48.686;9.738;2022-07-22T08:58:06;11.47;;;7.53;;
315;SDS011;14128;48.686;9.738;2022-07-22T09:00:33;8.77;;;7.50;;
315;SDS011;14128;48.686;9.738;2022-07-22T09:03:00;8.80;;;8.07;;
315;SDS011;14128;48.686;9.738;2022-07-22T09:05:43;9.40;;;7.57;;
315;SDS011;14128;48.686;9.738;2022-07-22T09:08:11;7.70;;;7.30;;
315;SDS011;14128;48.686;9.738;2022-07-22T09:10:38;8.67;;;8.17;;
315;SDS011;14128;48.686;9.738;2022-07-22T09:13:07;8.00;;;7.60;;
315;SDS011;14128;48.686;9.738;2022-07-22T09:15:34;7.57;;;7.17;;
315;SDS011;14128;48.686;9.738;2022-07-22T09:18:02;7.93;;;7.53;;
315;SDS011;14128;48.686;9.738;2022-07-22T09:20:29;10.33;;;7.80;;
315;SDS011;14128;48.686;9.738;2022-07-22T09:22:58;9.27;;;7.80;;
315;SDS011;14128;48.686;9.738;2022-07-22T09:25:26;8.43;;;7.97;;
315;SDS011;14128;48.686;9.738;2022-07-22T09:27:55;7.63;;;7.23;;
315;SDS011;14128;48.686;9.738;2022-07-22T09:30:23;8.03;;;7.63;;
315;SDS011;14128;48.686;9.738;2022-07-22T09:32:52;8.87;;;8.37;;
315;SDS011;14128;48.686;9.738;2022-07-22T09:35:21;9.00;;;7.17;;
315;SDS011;14128;48.686;9.738;2022-07-22T09:37:50;8.17;;;7.77;;
315;SDS011;14128;48.686;9.738;2022-07-22T09:40:19;6.57;;;6.17;;
315;SDS011;14128;48.686;9.738;2022-07-22T09:42:48;7.37;;;6.97;;
315;SDS011;14128;48.686;9.738;2022-07-22T09:45:16;7.43;;;7.03;;
315;SDS011;14128;48.686;9.738;2022-07-22T09:47:44;7.83;;;7.43;;
315;SDS011;14128;48.686;9.738;2022-07-22T09:50:19;9.07;;;6.80;;
315;SDS011;14128;48.686;9.738;2022-07-22T09:52:47;7.93;;;6.73;;
315;SDS011;14128;48.686;9.738;2022-07-22T09:55:15;9.53;;;6.97;;
315;SDS011;14128;48.686;9.738;2022-07-22T09:57:45;7.10;;;6.70;;
315;SDS011;14128;48.686;9.738;2022-07-22T10:00:13;7.37;;;6.97;;
315;SDS011;14128;48.686;9.738;2022-07-22T10:02:43;6.70;;;6.30;;
315;SDS011;14128;48.686;9.738;2022-07-22T10:05:11;9.07;;;7.70;;
315;SDS011;14128;48.686;9.738;2022-07-22T10:07:40;7.30;;;6.90;;
315;SDS011;14128;48.686;9.738;2022-07-22T10:10:09;8.00;;;7.60;;
315;SDS011;14128;48.686;9.738;2022-07-22T10:12:36;12.83;;;7.80;;
315;SDS011;14128;48.686;9.738;2022-07-22T10:15:06;7.93;;;7.53;;
315;SDS011;14128;48.686;9.738;2022-07-22T10:17:34;6.87;;;6.47;;
315;SDS011;14128;48.686;9.738;2022-07-22T10:20:02;7.70;;;7.10;;
315;SDS011;14128;48.686;9.738;2022-07-22T10:22:44;7.10;;;6.70;;
315;SDS011;14128;48.686;9.738;2022-07-22T10:25:14;7.10;;;6.70;;
315;SDS011;14128;48.686;9.738;2022-07-22T10:27:43;7.07;;;6.67;;
315;SDS011;14128;48.686;9.738;2022-07-22T10:30:14;7.30;;;6.90;;
315;SDS011;14128;48.686;9.738;2022-07-22T10:32:41;7.53;;;7.13;;
315;SDS011;14128;48.686;9.738;2022-07-22T10:35:24;6.50;;;6.10;;
315;SDS011;14128;48.686;9.738;2022-07-22T10:37:52;7.10;;;6.70;;
315;SDS011;14128;48.686;9.738;2022-07-22T10:40:22;6.90;;;6.50;;
315;SDS011;14128;48.686;9.738;2022-07-22T10:43:05;7.37;;;6.93;;
315;SDS011;14128;48.686;9.738;2022-07-22T10:45:35;8.07;;;7.67;;
315;SDS011;14128;48.686;9.738;2022-07-22T10:48:03;7.23;;;6.73;;
315;SDS011;14128;48.686;9.738;2022-07-22T10:50:40;6.13;;;5.83;;
315;SDS011;14128;48.686;9.738;2022-07-22T10:53:08;7.23;;;6.30;;
315;SDS011;14128;48.686;9.738;2022-07-22T10:55:36;6.27;;;5.93;;
315;SDS011;14128;48.686;9.738;2022-07-22T11:00:47;8.43;;;6.27;;
315;SDS011;14128;48.686;9.738;2022-07-22T11:03:22;7.10;;;6.20;;
315;SDS011;14128;48.686;9.738;2022-07-22T11:05:50;6.70;;;6.30;;
315;SDS011;14128;48.686;9.738;2022-07-22T11:08:17;6.90;;;6.53;;
315;SDS011;14128;48.686;9.738;2022-07-22T11:10:46;6.57;;;6.17;;
315;SDS011;14128;48.686;9.738;2022-07-22T11:13:14;5.90;;;5.60;;
315;SDS011;14128;48.686;9.738;2022-07-22T11:15:59;11.10;;;6.37;;
315;SDS011;14128;48.686;9.738;2022-07-22T11:18:46;6.70;;;6.30;;
315;SDS011;14128;48.686;9.738;2022-07-22T11:21:14;6.10;;;5.80;;
315;SDS011;14128;48.686;9.738;2022-07-22T11:23:42;5.60;;;5.30;;
315;SDS011;14128;48.686;9.738;2022-07-22T11:26:10;6.57;;;6.17;;
315;SDS011;14128;48.686;9.738;2022-07-22T11:28:39;6.90;;;6.47;;
315;SDS011;14128;48.686;9.738;2022-07-22T11:31:09;5.47;;;5.20;;
315;SDS011;14128;48.686;9.738;2022-07-22T11:33:36;5.17;;;4.87;;
315;SDS011;14128;48.686;9.738;2022-07-22T11:36:03;5.93;;;5.63;;
315;SDS011;14128;48.686;9.738;2022-07-22T11:38:44;7.67;;;6.13;;
315;SDS011;14128;48.686;9.738;2022-07-22T11:41:11;5.73;;;5.43;;
315;SDS011;14128;48.686;9.738;2022-07-22T11:43:39;7.07;;;5.30;;
315;SDS011;14128;48.686;9.738;2022-07-22T11:46:08;4.93;;;4.63;;
315;SDS011;14128;48.686;9.738;2022-07-22T11:48:35;5.80;;;5.50;;
315;SDS011;14128;48.686;9.738;2022-07-22T11:51:03;5.60;;;5.30;;
315;SDS011;14128;48.686;9.738;2022-07-22T11:53:31;5.47;;;5.17;;
315;SDS011;14128;48.686;9.738;2022-07-22T11:55:59;5.90;;;5.60;;
315;SDS011;14128;48.686;9.738;2022-07-22T11:58:33;5.33;;;5.03;;
315;SDS011;14128;48.686;9.738;2022-07-22T12:01:00;6.67;;;6.23;;
315;SDS011;14128;48.686;9.738;2022-07-22T12:03:29;5.83;;;5.53;;
315;SDS011;14128;48.686;9.738;2022-07-22T12:05:56;5.67;;;5.37;;
315;SDS011;14128;48.686;9.738;2022-07-22T12:08:23;5.77;;;5.47;;
315;SDS011;14128;48.686;9.738;2022-07-22T12:10:51;5.27;;;4.97;;
315;SDS011;14128;48.686;9.738;2022-07-22T12:13:18;6.30;;;5.40;;
315;SDS011;14128;48.686;9.738;2022-07-22T12:15:45;5.80;;;5.37;;
315;SDS011;14128;48.686;9.738;2022-07-22T12:18:19;6.20;;;5.53;;
315;SDS011;14128;48.686;9.738;2022-07-22T12:20:48;5.60;;;4.90;;
315;SDS011;14128;48.686;9.738;2022-07-22T12:23:16;6.00;;;5.70;;
315;SDS011;14128;48.686;9.738;2022-07-22T12:25:53;5.73;;;5.43;;
315;SDS011;14128;48.686;9.738;2022-07-22T12:28:20;5.13;;;4.83;;
315;SDS011;14128;48.686;9.738;2022-07-22T12:30:47;5.70;;;5.40;;
315;SDS011;14128;48.686;9.738;2022-07-22T12:33:15;5.33;;;5.00;;
315;SDS011;14128;48.686;9.738;2022-07-22T12:35:43;5.40;;;5.10;;
315;SDS011;14128;48.686;9.738;2022-07-22T12:38:12;6.10;;;5.80;;
315;SDS011;14128;48.686;9.738;2022-07-22T12:40:40;6.20;;;5.43;;
315;SDS011;14128;48.686;9.738;2022-07-22T12:43:08;5.30;;;5.00;;
315;SDS011;14128;48.686;9.738;2022-07-22T12:45:36;5.57;;;5.27;;
315;SDS011;14128;48.686;9.738;2022-07-22T12:48:07;4.70;;;4.40;;
315;SDS011;14128;48.686;9.738;2022-07-22T12:50:36;5.63;;;5.37;;
315;SDS011;14128;48.686;9.738;2022-07-22T12:53:04;4.73;;;4.30;;
315;SDS011;14128;48.686;9.738;2022-07-22T12:55:33;5.00;;;4.70;;
315;SDS011;14128;48.686;9.738;2022-07-22T12:58:01;5.60;;;4.43;;
315;SDS011;14128;48.686;9.738;2022-07-22T13:00:29;4.83;;;4.53;;
315;SDS011;14128;48.686;9.738;2022-07-22T13:02:56;5.53;;;5.30;;
315;SDS011;14128;48.686;9.738;2022-07-22T13:05:23;5.53;;;4.80;;
315;SDS011;14128;48.686;9.738;2022-07-22T13:07:51;6.50;;;6.10;;
315;SDS011;14128;48.686;9.738;2022-07-22T13:10:19;4.77;;;4.47;;
315;SDS011;14128;48.686;9.738;2022-07-22T13:12:47;7.20;;;5.50;;
315;SDS011;14128;48.686;9.738;2022-07-22T13:15:15;5.87;;;5.60;;
315;SDS011;14128;48.686;9.738;2022-07-22T13:17:42;5.00;;;4.70;;
315;SDS011;14128;48.686;9.738;2022-07-22T13:20:10;6.27;;;5.20;;
315;SDS011;14128;48.686;9.738;2022-07-22T13:22:38;5.30;;;5.00;;
315;SDS011;14128;48.686;9.738;2022-07-22T13:25:06;6.07;;;5.77;;
315;SDS011;14128;48.686;9.738;2022-07-22T13:27:33;5.40;;;5.10;;
315;SDS011;14128;48.686;9.738;2022-07-22T13:30:02;5.70;;;5.40;;
315;SDS011;14128;48.686;9.738;2022-07-22T13:32:29;5.13;;;4.83;;
315;SDS011;14128;48.686;9.738;2022-07-22T13:34:56;5.40;;;5.10;;
315;SDS011;14128;48.686;9.738;2022-07-22T13:37:23;5.00;;;4.70;;
315;SDS011;14128;48.686;9.738;2022-07-22T13:39:50;8.63;;;6.00;;
315;SDS011;14128;48.686;9.738;2022-07-22T13:42:18;5.43;;;5.13;;
315;SDS011;14128;48.686;9.738;2022-07-22T13:44:45;5.37;;;5.07;;
315;SDS011;14128;48.686;9.738;2022-07-22T13:47:14;4.70;;;4.40;;
315;SDS011;14128;48.686;9.738;2022-07-22T13:49:41;5.37;;;5.07;;
315;SDS011;14128;48.686;9.738;2022-07-22T13:52:09;5.30;;;5.00;;
315;SDS011;14128;48.686;9.738;2022-07-22T13:54:36;4.90;;;4.60;;
315;SDS011;14128;48.686;9.738;2022-07-22T13:57:03;6.33;;;5.97;;
315;SDS011;14128;48.686;9.738;2022-07-22T13:59:31;5.27;;;4.97;;
315;SDS011;14128;48.686;9.738;2022-07-22T14:01:58;5.47;;;5.20;;
315;SDS011;14128;48.686;9.738;2022-07-22T14:04:27;4.97;;;4.67;;
315;SDS011;14128;48.686;9.738;2022-07-22T14:06:54;6.97;;;4.80;;
315;SDS011;14128;48.686;9.738;2022-07-22T14:09:22;5.17;;;4.87;;
315;SDS011;14128;48.686;9.738;2022-07-22T14:11:49;6.50;;;5.07;;
315;SDS011;14128;48.686;9.738;2022-07-22T14:14:16;6.10;;;5.80;;
315;SDS011;14128;48.686;9.738;2022-07-22T14:16:43;4.90;;;4.60;;
315;SDS011;14128;48.686;9.738;2022-07-22T14:19:11;5.00;;;4.70;;
315;SDS011;14128;48.686;9.738;2022-07-22T14:21:41;5.93;;;5.63;;
315;SDS011;14128;48.686;9.738;2022-07-22T14:24:08;5.30;;;5.00;;
315;SDS011;14128;48.686;9.738;2022-07-22T14:26:36;5.20;;;4.90;;
315;SDS011;14128;48.686;9.738;2022-07-22T14:29:03;5.30;;;5.00;;
315;SDS011;14128;48.686;9.738;2022-07-22T14:31:31;5.57;;;5.00;;
315;SDS011;14128;48.686;9.738;2022-07-22T14:33:58;5.93;;;4.87;;
315;SDS011;14128;48.686;9.738;2022-07-22T14:36:25;5.67;;;5.37;;
315;SDS011;14128;48.686;9.738;2022-07-22T14:38:53;5.00;;;4.70;;
315;SDS011;14128;48.686;9.738;2022-07-22T14:41:21;6.80;;;5.40;;
315;SDS011;14128;48.686;9.738;2022-07-22T14:43:48;5.33;;;5.07;;
315;SDS011;14128;48.686;9.738;2022-07-22T14:46:15;4.17;;;3.93;;
315;SDS011;14128;48.686;9.738;2022-07-22T14:48:43;6.10;;;4.70;;
315;SDS011;14128;48.686;9.738;2022-07-22T14:51:11;4.60;;;4.30;;
315;SDS011;14128;48.686;9.738;2022-07-22T14:53:38;4.90;;;4.60;;
315;SDS011;14128;48.686;9.738;2022-07-22T14:56:07;5.23;;;4.40;;
315;SDS011;14128;48.686;9.738;2022-07-22T14:58:34;4.10;;;3.93;;
315;SDS011;14128;48.686;9.738;2022-07-22T15:01:01;4.83;;;4.53;;
315;SDS011;14128;48.686;9.738;2022-07-22T15:03:28;6.03;;;4.93;;
315;SDS011;14128;48.686;9.738;2022-07-22T15:05:55;5.40;;;5.10;;
315;SDS011;14128;48.686;9.738;2022-07-22T15:08:22;4.80;;;4.50;;
315;SDS011;14128;48.686;9.738;2022-07-22T15:10:49;4.43;;;4.13;;
315;SDS011;14128;48.686;9.738;2022-07-22T15:13:18;5.10;;;4.80;;
315;SDS011;14128;48.686;9.738;2022-07-22T15:15:45;8.40;;;4.63;;